Jackson County Reynolds Field
KJXN : now visible

Airfield :











YOU CAN JOIN US ON...

 
LOGIN :

Register | Disclaimer

   EN    FR    IT 

 









Legend :    VFR   Marginal VFR   IFR   Intensive IFR   Very Intensive IFR
Visi :
Ceiling :
>= 8 km
>= 3000ft
5 to 8 km
1000 to 3000 ft
1500m to 5 km
500 to 1000 ft
800 to 1500m
200 to 500 ft
< 800m
< 200 ft
Symbols :   Thunderstorms  Fog  Heavy snow  Heavy precipitations  Wind > 20 kt






- Airport Elevation : 1001 ft


KJXN - Jackson County Reynolds Field

CURRENT METAR :
  • 221256Z 29007KT 10SM OVC021 01/M02 A3004 RMK AO2 SNE05 SLP178 P0000 T00111022

EXPIRED METARs :
  • 221156Z 30011KT 6SM -SN OVC020 01/M02 A3002 RMK AO2 SNB48 SLP171 P0000 60000 70017 T00111022 10039 20011 51027
  • 221056Z AUTO 29006KT 10SM OVC026 01/M03 A2999 RMK AO2 SLP163 T00111028

TAF KJXN
Valid from the 22 at 12:00 until the 23 at 12:00 UTC


221140Z 2212/2312 30012G18KT P6SM OVC025
FM221800 29010KT P6SM BKN050
FM222100 26005KT P6SM SCT250



MET'MAP, your aeronautical weather chart ! - Copyright ORBIFLY December 2007 - Disclaimer

ORBIFLY MET'MAP TEAM :

Programming & Development : Alexandra Zaïnal
Concept & Development : Baudouin d'Aumeries
Co-Development & Prog : Marc-Olivier Méhu
Technical & hardware support : Manuel Goepfert

Contact : metmap@orbifly.com




SOURCES & CREDITS :

   NOAA       Earth
Advisory